Terminal Aerodrome Forecast
Issued by NWS

Home | Current Version | Previous Version | Text Only | Print | Product List | Glossary On
Versions: 1 2 3 4 5 6 7 8 9 10 11 12 13 14 15 16 17 18 19 20 21 22 23 24 25 26 27 28 29 30 31 32 33 34 35 36 37 38 39 40 41 42 43 44 45 46 47 48 49 50
000
FTUS42 KGSP 300703 AAA
TAFHKY
TAF AMD
KHKY 300703Z 3007/0106 28003KT 6SM BR SCT003 BKN100
      TEMPO 3007/3009 3SM BR BKN003 OVC100
     FM300900 27003KT 3SM BR BKN003 OVC008
      TEMPO 3009/3012 1SM BR
     FM301300 VRB02KT 4SM BR SCT010
     FM301400 22003KT P6SM SCT250
     FM301800 20007KT P6SM FEW250=

USA.gov is the U.S. government's official web portal to all federal, state and local government web resources and services.